SGH weather

Springfield-Beckley Municipal Airport
Springfield, Ohio, United States

Public forecast

Using degrees Fahrenheit for public forecast. Weather courtesy of forecast.io.

Current aviation weather report (METAR) for Springfield-Beckley Municipal Airport

Retrieved 2020/02/24 04:56 UTC (44 minutes ago):

KSGH 240456Z AUTO 22007KT 10SM CLR 03/M04 A3002 RMK AO2 SLP173 T00331039

Closest aviation forecast (TAF) to Springfield-Beckley Municipal Airport

Closest forecast is Wright-Patterson Air Force Base, 9.6 nm (17.8 km) W. Retrieved 2020-02-24 03:15 UTC (2 hours ago):

TAF KFFO 240300Z 2403/2509 VRB06KT 9999 BKN040 620405 QNH3000INS BECMG 2411/2412 VRB06KT 9000 BR SCT005 OVC040 620505 QNH2999INS BECMG 2417/2418 VRB06KT 8000 -RA BR OVC005 620405 QNH2996INS BECMG 2500/2501 VRB06KT 8000 -RA BR OVC003 620405 QNH2985INS BECMG 2508/2509 09006KT 9999 NSW OVC003 620705 QNH2974INS TX05/2421Z TN02/2410Z